Time;durP1;ratioP1;P1;durP2;ratioP2;P2;SDS_P1;SDS_P2;PMS_P1;PMS_P2;Temp;Humidity;BMP_temperature;BMP_pressure;BME280_temperature;BME280_humidity;BME280_pressure;Samples;Min_cycle;Max_cycle;Signal;HPM_P1;HPM_P2
2023/05/31 00:01:25;;;;;;;;;;;;;;;11.65;70.57;98821.59;4862245;29;19928;-85
2023/05/31 00:03:54;;;;;;;;;;;;;;;11.63;70.81;98820.22;4863532;29;19931;-86
2023/05/31 00:06:21;;;;;;;;;;;;;;;11.63;70.64;98810.22;4864142;29;20030;-86
2023/05/31 00:08:48;;;;;;;;;;;;;;;11.64;70.57;98811.03;4874768;29;19935;-86
2023/05/31 00:11:15;;;;;;;;;;;;;;;11.65;70.49;98808.09;4861227;29;19927;-86
2023/05/31 00:13:42;;;;;;;;;;;;;;;11.67;70.42;98811.34;4849398;29;19958;-84
2023/05/31 00:16:09;;;;;;;;;;;;;;;11.67;70.74;98822.16;4849702;29;19928;-85
2023/05/31 00:18:57;;;;;;;;;;;;;;;11.64;71.10;98830.75;4860627;29;20455;-85
2023/05/31 00:21:25;;;;;;;;;;;;;;;11.65;71.23;98831.59;4859630;29;20035;-83
2023/05/31 00:23:52;;;;;;;;;;;;;;;11.62;71.07;98832.94;4858836;29;19928;-86
2023/05/31 00:26:19;;;;;;;;;;;;;;;11.58;71.40;98833.69;4859622;29;19928;-84
2023/05/31 00:28:50;;;;;;;;;;;;;;;11.52;71.95;98826.59;4859809;29;19928;-85
2023/05/31 00:31:17;;;;;;;;;;;;;;;11.47;71.89;98839.00;4859687;29;19928;-85
2023/05/31 00:33:45;;;;;;;;;;;;;;;11.39;72.22;98828.63;4858502;29;19927;-84
2023/05/31 00:36:12;;;;;;;;;;;;;;;11.33;72.46;98837.75;4859881;29;19992;-84
2023/05/31 00:38:39;;;;;;;;;;;;;;;11.25;72.79;98833.63;4859335;29;19934;-84
2023/05/31 00:41:08;;;;;;;;;;;;;;;11.21;73.06;98834.38;4859082;29;19984;-85
2023/05/31 00:43:35;;;;;;;;;;;;;;;11.13;73.16;98832.94;4856300;29;19955;-84
2023/05/31 00:46:02;;;;;;;;;;;;;;;11.07;73.51;98837.47;4856675;29;19934;-82
2023/05/31 00:48:29;;;;;;;;;;;;;;;11.03;73.62;98832.81;4840994;29;19992;-84
2023/05/31 00:50:57;;;;;;;;;;;;;;;10.96;73.54;98826.78;4857643;29;19932;-84
2023/05/31 00:53:24;;;;;;;;;;;;;;;10.92;73.92;98831.06;4856739;29;19932;-84
2023/05/31 00:55:51;;;;;;;;;;;;;;;10.94;74.18;98831.59;4858981;29;20487;-83
2023/05/31 00:58:18;;;;;;;;;;;;;;;10.88;74.17;98825.31;4842145;29;19970;-84
2023/05/31 01:00:45;;;;;;;;;;;;;;;10.84;74.36;98832.31;4857753;29;19928;-83
2023/05/31 01:03:13;;;;;;;;;;;;;;;10.80;74.60;98823.06;4856400;29;20035;-83
2023/05/31 01:05:41;;;;;;;;;;;;;;;10.81;74.60;98828.22;4841768;29;19935;-82
2023/05/31 01:08:08;;;;;;;;;;;;;;;10.79;74.42;98832.25;4857486;29;20027;-84
2023/05/31 01:10:35;;;;;;;;;;;;;;;10.74;74.47;98835.69;4859170;29;19927;-84
2023/05/31 01:13:06;;;;;;;;;;;;;;;10.71;74.65;98838.91;4857566;29;19935;-84
2023/05/31 01:15:44;;;;;;;;;;;;;;;10.69;74.95;98837.50;4858120;29;19935;-85
2023/05/31 01:18:25;;;;;;;;;;;;;;;10.67;75.12;98834.25;4856352;29;19928;-85
2023/05/31 01:20:57;;;;;;;;;;;;;;;10.65;75.16;98831.78;4854355;29;19928;-84
2023/05/31 01:23:42;;;;;;;;;;;;;;;10.65;75.08;98820.97;4840787;29;19951;-84
2023/05/31 01:26:25;;;;;;;;;;;;;;;10.67;75.12;98832.34;4854709;29;19927;-84
2023/05/31 01:28:53;;;;;;;;;;;;;;;10.65;75.19;98830.97;4861818;29;19928;-84
2023/05/31 01:31:23;;;;;;;;;;;;;;;10.62;75.15;98818.78;4872633;29;19963;-84
2023/05/31 01:33:50;;;;;;;;;;;;;;;10.61;75.44;98828.78;4875976;29;19934;-85
2023/05/31 01:36:18;;;;;;;;;;;;;;;10.61;75.41;98827.97;4860818;29;19983;-84
2023/05/31 01:38:45;;;;;;;;;;;;;;;10.57;75.61;98822.22;4876120;29;20387;-84
2023/05/31 01:41:12;;;;;;;;;;;;;;;10.56;75.54;98812.50;4877052;29;19927;-83
2023/05/31 01:43:43;;;;;;;;;;;;;;;10.56;75.72;98828.69;4875760;29;19928;-84
2023/05/31 01:46:10;;;;;;;;;;;;;;;10.57;75.65;98826.81;4861398;29;19934;-83
2023/05/31 01:48:37;;;;;;;;;;;;;;;10.55;75.64;98831.63;4867629;29;19932;-84
2023/05/31 01:51:08;;;;;;;;;;;;;;;10.51;75.79;98825.94;4859878;29;19951;-84
2023/05/31 01:53:36;;;;;;;;;;;;;;;10.52;76.06;98830.25;4862530;29;19928;-84
2023/05/31 01:56:03;;;;;;;;;;;;;;;10.54;75.94;98830.00;4830454;29;19939;-83
2023/05/31 01:58:44;;;;;;;;;;;;;;;10.53;76.22;98822.97;4827316;29;19977;-83
2023/05/31 02:01:11;;;;;;;;;;;;;;;10.55;76.11;98823.53;4824220;29;19955;-84
2023/05/31 02:03:40;;;;;;;;;;;;;;;10.59;76.35;98822.00;4832720;29;19939;-84
2023/05/31 02:06:13;;;;;;;;;;;;;;;10.68;76.09;98831.28;4792380;29;19928;-83
2023/05/31 02:08:41;;;;;;;;;;;;;;;10.76;75.93;98832.72;4771752;30;20047;-83
2023/05/31 02:11:17;;;;;;;;;;;;;;;10.81;75.73;98833.63;4771214;30;19929;-83
2023/05/31 02:13:49;;;;;;;;;;;;;;;10.90;75.44;98836.69;4756591;30;20028;-84
2023/05/31 02:16:17;;;;;;;;;;;;;;;10.97;75.31;98850.84;4800534;29;20464;-83
2023/05/31 02:18:48;;;;;;;;;;;;;;;10.97;75.24;98841.94;4771086;30;19936;-82
2023/05/31 02:21:21;;;;;;;;;;;;;;;10.96;75.16;98832.19;4788127;29;20421;-83
2023/05/31 02:23:48;;;;;;;;;;;;;;;10.99;75.13;98829.00;4768393;30;19938;-83
2023/05/31 02:26:18;;;;;;;;;;;;;;;10.98;75.33;98835.44;4732537;30;20077;-83
2023/05/31 02:28:45;;;;;;;;;;;;;;;11.04;75.05;98839.84;4750448;30;19930;-83
2023/05/31 02:31:13;;;;;;;;;;;;;;;11.05;75.03;98836.88;4765497;30;20036;-84
2023/05/31 02:33:41;;;;;;;;;;;;;;;11.10;75.08;98830.75;4751574;30;20432;-83
2023/05/31 02:36:09;;;;;;;;;;;;;;;11.13;74.98;98837.53;4770210;29;20520;-83
2023/05/31 02:38:45;;;;;;;;;;;;;;;11.20;74.89;98844.38;4828219;29;20026;-84
2023/05/31 02:41:14;;;;;;;;;;;;;;;11.25;74.80;98847.13;4850667;29;20383;-83
2023/05/31 02:43:42;;;;;;;;;;;;;;;11.31;74.60;98839.06;4858990;29;19928;-83
2023/05/31 02:46:11;;;;;;;;;;;;;;;11.26;74.60;98846.03;4843201;29;20340;-82
2023/05/31 02:48:38;;;;;;;;;;;;;;;11.26;74.90;98856.03;4860323;29;19953;-83
2023/05/31 02:51:05;;;;;;;;;;;;;;;11.33;74.79;98858.56;4859936;29;19928;-83
2023/05/31 02:54:11;;;;;;;;;;;;;;;11.35;74.80;98859.13;4869260;29;19928;-83
2023/05/31 02:56:48;;;;;;;;;;;;;;;11.38;74.50;98856.72;4860372;29;19935;-83
2023/05/31 02:59:20;;;;;;;;;;;;;;;11.33;74.55;98866.66;4859332;29;20398;-84
2023/05/31 03:01:51;;;;;;;;;;;;;;;11.35;74.70;98861.81;4844775;29;20023;-83
2023/05/31 03:04:41;;;;;;;;;;;;;;;11.43;74.62;98864.88;4840968;29;20314;-83
2023/05/31 03:07:26;;;;;;;;;;;;;;;11.55;74.32;98863.94;4828940;29;20312;-83
2023/05/31 03:09:55;;;;;;;;;;;;;;;11.55;74.22;98872.84;4842762;29;19928;-83
2023/05/31 03:12:22;;;;;;;;;;;;;;;11.61;74.42;98877.22;4843979;29;19960;-82
2023/05/31 03:14:50;;;;;;;;;;;;;;;11.74;73.96;98876.00;4845041;29;19929;-83
2023/05/31 03:17:17;;;;;;;;;;;;;;;11.86;73.58;98873.16;4843596;29;19934;-83
2023/05/31 03:19:47;;;;;;;;;;;;;;;12.01;73.16;98867.91;4843670;29;20299;-82
2023/05/31 03:22:15;;;;;;;;;;;;;;;12.12;72.53;98866.13;4859035;29;20009;-83
2023/05/31 03:24:44;;;;;;;;;;;;;;;12.29;72.40;98869.50;4859298;29;19934;-83
2023/05/31 03:27:11;;;;;;;;;;;;;;;12.49;71.73;98876.97;4858924;29;19928;-83
2023/05/31 03:29:40;;;;;;;;;;;;;;;12.83;71.04;98875.81;4857741;29;19928;-84
2023/05/31 03:32:12;;;;;;;;;;;;;;;12.76;69.72;98859.78;4860147;29;19928;-84
2023/05/31 03:34:39;;;;;;;;;;;;;;;12.65;70.10;98864.34;4859915;29;19934;-84
2023/05/31 03:37:08;;;;;;;;;;;;;;;12.63;70.30;98852.13;4858979;29;19928;-83
2023/05/31 03:39:44;;;;;;;;;;;;;;;12.51;70.41;98846.94;4859239;29;20015;-83
2023/05/31 03:42:22;;;;;;;;;;;;;;;12.27;71.08;98857.31;4858870;29;19952;-84
2023/05/31 03:44:51;;;;;;;;;;;;;;;12.12;72.11;98849.88;4858643;29;20445;-85
2023/05/31 03:47:18;;;;;;;;;;;;;;;12.09;72.83;98855.81;4858844;29;19928;-85
2023/05/31 03:49:45;;;;;;;;;;;;;;;12.11;73.32;98859.88;4859489;29;19932;-83
2023/05/31 03:52:12;;;;;;;;;;;;;;;11.98;73.89;98849.50;4859117;29;19928;-85
2023/05/31 03:54:43;;;;;;;;;;;;;;;11.96;74.53;98851.66;4860077;29;19974;-84
2023/05/31 03:57:15;;;;;;;;;;;;;;;11.85;75.73;98861.53;4858397;29;19983;-84
2023/05/31 03:59:42;;;;;;;;;;;;;;;11.80;76.37;98866.91;4858215;29;19966;-83
2023/05/31 04:02:14;;;;;;;;;;;;;;;11.87;76.75;98875.63;4857886;29;20414;-88
2023/05/31 04:04:41;;;;;;;;;;;;;;;11.88;77.00;98873.75;4843941;29;19928;-86
2023/05/31 04:07:27;;;;;;;;;;;;;;;11.65;77.92;98864.84;4874576;29;19978;-84
2023/05/31 04:12:41;;;;;;;;;;;;;;;11.38;79.65;98872.94;4856812;29;19976;-83
2023/05/31 04:15:08;;;;;;;;;;;;;;;11.35;80.17;98878.03;4842252;29;19928;-84
2023/05/31 04:17:39;;;;;;;;;;;;;;;11.23;80.58;98878.97;4840394;29;19943;-83
2023/05/31 04:20:18;;;;;;;;;;;;;;;11.13;81.37;98868.03;4857178;29;19935;-86
2023/05/31 04:22:49;;;;;;;;;;;;;;;11.09;81.75;98879.59;4857323;29;20352;-85
2023/05/31 04:25:17;;;;;;;;;;;;;;;11.15;82.00;98878.59;4841944;29;20395;-83
2023/05/31 04:27:46;;;;;;;;;;;;;;;11.15;82.23;98878.59;4519936;29;10000571;-83
2023/05/31 04:30:13;;;;;;;;;;;;;;;11.11;82.63;98880.97;4852551;29;20384;-82
2023/05/31 04:32:44;;;;;;;;;;;;;;;11.21;82.72;98883.78;4838837;29;19928;-81
2023/05/31 04:35:11;;;;;;;;;;;;;;;11.23;82.86;98881.66;4853679;29;19934;-83
2023/05/31 04:37:46;;;;;;;;;;;;;;;11.13;83.00;98889.66;4853712;29;20019;-83
2023/05/31 04:40:15;;;;;;;;;;;;;;;11.04;83.33;98899.28;4838570;29;19928;-84
2023/05/31 04:42:43;;;;;;;;;;;;;;;10.98;83.69;98889.44;4839280;29;20319;-85
2023/05/31 04:45:24;;;;;;;;;;;;;;;10.98;84.00;98887.56;4854902;29;20403;-83
2023/05/31 04:47:52;;;;;;;;;;;;;;;11.00;84.06;98882.72;4855008;29;20406;-83
2023/05/31 04:50:19;;;;;;;;;;;;;;;10.99;84.10;98885.69;4856301;29;19939;-87
2023/05/31 04:52:47;;;;;;;;;;;;;;;10.92;83.97;98890.47;4907178;23;19930;-85
2023/05/31 04:55:15;;;;;;;;;;;;;;;10.83;84.27;98900.84;4883011;29;20275;-83
2023/05/31 04:57:46;;;;;;;;;;;;;;;10.75;84.93;98898.59;4913487;29;19962;-84
2023/05/31 05:00:16;;;;;;;;;;;;;;;10.69;85.43;98916.59;4913678;29;19927;-84
2023/05/31 05:03:10;;;;;;;;;;;;;;;10.64;86.04;98927.31;4913390;29;20023;-83
2023/05/31 05:05:37;;;;;;;;;;;;;;;10.60;86.62;98926.97;4913554;29;19934;-83
2023/05/31 05:08:05;;;;;;;;;;;;;;;10.56;87.27;98922.34;4913798;29;19927;-85
2023/05/31 05:10:35;;;;;;;;;;;;;;;10.46;88.24;98920.28;4903174;29;20686;-84
2023/05/31 05:13:02;;;;;;;;;;;;;;;10.39;89.05;98919.63;4899145;29;19927;-85
2023/05/31 05:15:30;;;;;;;;;;;;;;;10.18;90.58;98918.47;4913447;29;19931;-85
2023/05/31 05:17:57;;;;;;;;;;;;;;;9.94;92.30;98921.25;4916246;29;19931;-83
2023/05/31 05:20:24;;;;;;;;;;;;;;;9.84;94.06;98917.56;4914423;29;19926;-84
2023/05/31 05:22:52;;;;;;;;;;;;;;;9.75;95.69;98915.28;4913212;29;19933;-84
2023/05/31 05:25:22;;;;;;;;;;;;;;;9.66;96.55;98886.25;4915717;29;19934;-84
2023/05/31 05:27:50;;;;;;;;;;;;;;;9.79;97.33;98861.69;4917501;29;20025;-84
2023/05/31 05:30:17;;;;;;;;;;;;;;;9.91;97.52;98856.25;4911010;29;19931;-84
2023/05/31 05:32:45;;;;;;;;;;;;;;;9.91;97.98;98838.19;4896345;29;19962;-83
2023/05/31 05:35:15;;;;;;;;;;;;;;;9.94;98.27;98842.28;4909748;29;20308;-83
2023/05/31 05:37:42;;;;;;;;;;;;;;;9.88;98.46;98827.91;4883118;29;19926;-85
2023/05/31 05:40:09;;;;;;;;;;;;;;;9.88;98.93;98833.28;4898894;29;19927;-84
2023/05/31 05:42:39;;;;;;;;;;;;;;;9.93;99.13;98825.28;4903775;29;20441;-84
2023/05/31 05:45:09;;;;;;;;;;;;;;;9.92;99.19;98812.84;4902926;29;19928;-83
2023/05/31 05:47:45;;;;;;;;;;;;;;;9.85;99.20;98814.06;4909706;29;19927;-83
2023/05/31 05:50:15;;;;;;;;;;;;;;;9.86;99.46;98815.72;4884738;29;19950;-85
2023/05/31 05:52:42;;;;;;;;;;;;;;;9.95;99.73;98825.88;4895053;29;19983;-83
2023/05/31 05:55:09;;;;;;;;;;;;;;;10.03;99.71;98846.22;4911084;29;19927;-82
2023/05/31 05:57:37;;;;;;;;;;;;;;;10.03;99.56;98854.31;4883928;29;20402;-85
2023/05/31 06:00:29;;;;;;;;;;;;;;;9.98;98.88;98855.03;4911955;29;19927;-85
2023/05/31 06:02:58;;;;;;;;;;;;;;;9.93;98.87;98852.25;4914249;29;19931;-83
2023/05/31 06:05:26;;;;;;;;;;;;;;;9.88;98.14;98851.34;4903453;29;19994;-81
2023/05/31 06:07:54;;;;;;;;;;;;;;;9.85;97.87;98851.81;4911288;29;20326;-83
2023/05/31 06:10:23;;;;;;;;;;;;;;;9.87;97.80;98837.03;4904216;29;21145;-82
2023/05/31 06:12:50;;;;;;;;;;;;;;;9.98;97.79;98836.16;4911051;29;19927;-88
2023/05/31 06:15:20;;;;;;;;;;;;;;;10.14;97.71;98839.09;4888366;29;20408;-87
2023/05/31 06:17:48;;;;;;;;;;;;;;;10.28;97.19;98826.09;4913135;29;19930;-86
2023/05/31 06:20:16;;;;;;;;;;;;;;;10.31;96.42;98826.44;4881464;29;19927;-84
2023/05/31 06:22:43;;;;;;;;;;;;;;;10.36;96.00;98821.13;4909412;29;19934;-85
2023/05/31 06:25:13;;;;;;;;;;;;;;;10.43;95.79;98818.25;4905337;29;20039;-84
2023/05/31 06:30:48;;;;;;;;;;;;;;;10.69;95.24;98824.81;4913616;29;19927;-86
2023/05/31 06:33:19;;;;;;;;;;;;;;;10.70;94.17;98825.63;4911563;29;19931;-85
2023/05/31 06:35:46;;;;;;;;;;;;;;;10.71;92.87;98824.56;4906433;29;19927;-87
2023/05/31 06:38:16;;;;;;;;;;;;;;;10.80;92.40;98817.66;4897809;29;19927;-84
2023/05/31 06:41:05;;;;;;;;;;;;;;;10.81;91.62;98809.34;4899097;29;19927;-85
2023/05/31 06:43:32;;;;;;;;;;;;;;;10.90;91.16;98811.59;4918742;29;19999;-84
2023/05/31 06:46:28;;;;;;;;;;;;;;;11.09;90.84;98810.22;4884796;29;19928;-82
2023/05/31 06:49:14;;;;;;;;;;;;;;;11.29;90.26;98806.91;4905021;29;19927;-83
2023/05/31 06:51:41;;;;;;;;;;;;;;;11.49;89.23;98793.63;4908539;29;19994;-84
2023/05/31 06:54:48;;;;;;;;;;;;;;;11.65;87.72;98802.69;4887156;29;20421;-83
2023/05/31 06:57:33;;;;;;;;;;;;;;;12.01;86.23;98803.00;4900010;29;20033;-84
2023/05/31 07:00:01;;;;;;;;;;;;;;;12.36;85.20;98798.94;4906340;29;20342;-82
2023/05/31 07:02:48;;;;;;;;;;;;;;;12.53;82.95;98798.75;4895231;29;19927;-86
2023/05/31 07:05:17;;;;;;;;;;;;;;;12.68;81.81;98792.59;4910947;29;19931;-86
2023/05/31 07:07:48;;;;;;;;;;;;;;;13.06;80.85;98806.84;4895009;29;19931;-84
2023/05/31 07:10:16;;;;;;;;;;;;;;;13.17;78.09;98803.09;4886842;29;19954;-86
2023/05/31 07:12:43;;;;;;;;;;;;;;;13.12;77.50;98803.09;4908307;29;19933;-86
2023/05/31 07:15:10;;;;;;;;;;;;;;;13.27;76.23;98788.78;4914531;29;20464;-84
2023/05/31 07:17:38;;;;;;;;;;;;;;;13.41;75.64;98806.97;4911275;29;19927;-84
2023/05/31 07:20:07;;;;;;;;;;;;;;;13.84;74.70;98807.56;4899712;29;19966;-84
2023/05/31 07:22:36;;;;;;;;;;;;;;;13.64;74.79;98804.84;4917830;29;20413;-84
2023/05/31 07:25:22;;;;;;;;;;;;;;;13.57;75.75;98798.88;4916244;29;20445;-84
2023/05/31 07:27:49;;;;;;;;;;;;;;;13.27;74.90;98802.31;4916427;29;19930;-85
2023/05/31 07:33:04;;;;;;;;;;;;;;;13.50;75.07;98785.59;4916223;29;19934;-86
2023/05/31 07:35:33;;;;;;;;;;;;;;;14.25;74.29;98788.56;4915639;29;19927;-84
2023/05/31 07:40:45;;;;;;;;;;;;;;;14.30;72.72;98785.88;4915778;29;20026;-84
2023/05/31 07:43:13;;;;;;;;;;;;;;;14.18;72.90;98789.94;4916682;29;19983;-84
2023/05/31 07:45:40;;;;;;;;;;;;;;;14.12;72.77;98789.13;4915520;29;19934;-85
2023/05/31 07:48:07;;;;;;;;;;;;;;;13.88;71.67;98800.53;4915297;29;19931;-84
2023/05/31 07:50:34;;;;;;;;;;;;;;;13.79;71.79;98791.31;4916540;29;19927;-85
2023/05/31 07:53:20;;;;;;;;;;;;;;;13.55;71.13;98792.94;4914658;29;19933;-84
2023/05/31 08:01:19;;;;;;;;;;;;;;;13.68;73.30;98784.25;4914563;29;19927;-84
2023/05/31 08:04:06;;;;;;;;;;;;;;;13.42;72.98;98786.13;4910733;29;19951;-84
2023/05/31 08:06:33;;;;;;;;;;;;;;;13.16;73.67;98782.50;4896218;29;19935;-83
2023/05/31 08:09:00;;;;;;;;;;;;;;;12.95;74.56;98793.25;4896596;29;19927;-84
2023/05/31 08:14:16;;;;;;;;;;;;;;;12.50;75.30;98794.66;4897088;29;20046;-84
2023/05/31 08:17:02;;;;;;;;;;;;;;;12.30;75.69;98789.13;4916195;29;20030;-84
2023/05/31 08:19:49;;;;;;;;;;;;;;;12.25;76.70;98794.50;4914821;29;20564;-83
2023/05/31 08:22:34;;;;;;;;;;;;;;;12.00;77.55;98806.81;4915547;29;19927;-84
2023/05/31 08:25:08;;;;;;;;;;;;;;;11.75;78.26;98793.84;4915456;29;19967;-84
2023/05/31 08:27:36;;;;;;;;;;;;;;;11.56;79.17;98814.22;4915160;29;19927;-84
2023/05/31 08:30:21;;;;;;;;;;;;;;;11.22;80.19;98809.00;4914172;29;19994;-83
2023/05/31 08:35:55;;;;;;;;;;;;;;;10.80;81.77;98814.97;4915569;29;19927;-84
2023/05/31 08:38:22;;;;;;;;;;;;;;;10.63;82.41;98815.00;4915411;29;19926;-84
2023/05/31 08:43:34;;;;;;;;;;;;;;;10.53;83.07;98823.81;4914854;29;19934;-84
2023/05/31 08:46:20;;;;;;;;;;;;;;;10.57;83.00;98816.03;4914178;29;19931;-83
2023/05/31 08:49:05;;;;;;;;;;;;;;;10.63;82.47;98817.72;4921924;29;19938;-84
2023/05/31 08:54:18;;;;;;;;;;;;;;;11.06;80.50;98819.63;4896914;29;19931;-86
2023/05/31 08:56:54;;;;;;;;;;;;;;;10.89;79.66;98826.13;4895910;29;19927;-86
2023/05/31 08:59:29;;;;;;;;;;;;;;;10.75;80.41;98828.41;4880022;29;19955;-87
2023/05/31 09:01:58;;;;;;;;;;;;;;;10.70;80.28;98831.03;4900787;29;19981;-85
2023/05/31 09:04:53;;;;;;;;;;;;;;;10.59;80.40;98832.78;4909375;29;20282;-85
2023/05/31 09:07:20;;;;;;;;;;;;;;;10.47;81.08;98834.75;4913568;29;19933;-87
2023/05/31 09:09:47;;;;;;;;;;;;;;;10.41;81.19;98832.00;4914839;29;19933;-88
2023/05/31 09:12:17;;;;;;;;;;;;;;;10.33;81.63;98831.59;4912789;29;20190;-88
2023/05/31 09:17:37;;;;;;;;;;;;;;;10.12;82.32;98838.53;4914147;29;19927;-86
2023/05/31 09:20:30;;;;;;;;;;;;;;;10.01;82.85;98844.81;4900833;29;19927;-87
2023/05/31 09:22:57;;;;;;;;;;;;;;;9.92;83.77;98845.19;4916701;29;19926;-90
2023/05/31 09:25:28;;;;;;;;;;;;;;;9.79;84.30;98847.41;4870570;29;20022;-93
2023/05/31 09:28:19;;;;;;;;;;;;;;;9.62;84.99;98850.06;4890672;29;19996;-89
2023/05/31 09:31:07;;;;;;;;;;;;;;;9.45;85.85;98853.56;4890367;29;19927;-92
2023/05/31 09:33:55;;;;;;;;;;;;;;;9.36;86.81;98857.69;4876096;29;19931;-89
2023/05/31 09:39:19;;;;;;;;;;;;;;;9.07;88.72;98868.44;4893428;29;19931;-93
2023/05/31 09:41:50;;;;;;;;;;;;;;;9.05;89.35;98850.88;4856856;29;19970;-92
2023/05/31 09:47:26;;;;;;;;;;;;;;;8.93;89.99;98852.78;4856686;29;19934;-89
2023/05/31 09:50:17;;;;;;;;;;;;;;;8.81;90.02;98864.38;4849083;29;19932;-88
2023/05/31 09:52:48;;;;;;;;;;;;;;;8.80;90.56;98872.69;4830064;29;19937;-89
2023/05/31 09:55:16;;;;;;;;;;;;;;;8.80;90.87;98878.06;4860575;29;20472;-87
2023/05/31 09:57:44;;;;;;;;;;;;;;;8.76;91.29;98882.28;4875904;29;19927;-88
2023/05/31 10:00:31;;;;;;;;;;;;;;;8.71;91.69;98884.84;4879069;29;20401;-89
2023/05/31 10:02:58;;;;;;;;;;;;;;;8.66;92.60;98891.78;4899901;29;19939;-90
2023/05/31 10:05:26;;;;;;;;;;;;;;;8.56;92.91;98875.41;4881010;29;20348;-91
2023/05/31 10:08:14;;;;;;;;;;;;;;;8.46;93.51;98899.38;4874382;29;19927;-91
2023/05/31 10:10:42;;;;;;;;;;;;;;;8.40;93.98;98906.47;4515621;29;10000634;-87
2023/05/31 10:13:28;;;;;;;;;;;;;;;8.27;94.23;98906.69;4871952;29;20964;-88
2023/05/31 10:15:56;;;;;;;;;;;;;;;8.28;95.13;98902.13;4865628;29;19952;-85
2023/05/31 10:18:27;;;;;;;;;;;;;;;8.28;95.35;98910.19;4878680;29;19928;-86
2023/05/31 10:21:13;;;;;;;;;;;;;;;8.25;95.57;98906.94;4854471;29;20058;-92
2023/05/31 10:23:59;;;;;;;;;;;;;;;8.22;96.21;98901.19;4893552;29;19991;-91
2023/05/31 10:26:29;;;;;;;;;;;;;;;8.29;96.28;98907.28;4885930;29;19927;-93
2023/05/31 10:29:14;;;;;;;;;;;;;;;8.46;96.62;98912.81;4895832;29;20021;-91
2023/05/31 10:31:45;;;;;;;;;;;;;;;8.46;96.24;98915.50;4879705;29;19927;-84
2023/05/31 10:37:01;;;;;;;;;;;;;;;8.49;96.03;98914.22;4910399;29;20398;-88
2023/05/31 10:39:34;;;;;;;;;;;;;;;8.49;95.72;98915.03;4899171;29;19931;-87
2023/05/31 10:45:04;;;;;;;;;;;;;;;8.63;95.51;98916.47;4876283;29;20418;-83
2023/05/31 10:47:34;;;;;;;;;;;;;;;8.89;95.98;98925.91;4892035;29;20337;-84
2023/05/31 10:52:51;;;;;;;;;;;;;;;8.87;94.40;98913.75;4863744;29;19984;-86
2023/05/31 10:55:19;;;;;;;;;;;;;;;8.96;93.74;98903.44;4872512;29;20170;-86
2023/05/31 10:57:56;;;;;;;;;;;;;;;8.84;92.72;98919.59;4880372;29;19928;-83
2023/05/31 11:00:25;;;;;;;;;;;;;;;8.81;93.12;98920.06;4890864;29;19970;-84
2023/05/31 11:06:03;;;;;;;;;;;;;;;9.05;92.60;98924.38;4868023;29;20011;-87
2023/05/31 11:08:49;;;;;;;;;;;;;;;9.08;92.31;98917.69;4890999;29;19927;-84
2023/05/31 11:11:47;;;;;;;;;;;;;;;9.22;92.29;98920.97;4887981;29;19927;-87
2023/05/31 11:14:25;;;;;;;;;;;;;;;9.26;90.64;98916.72;4923259;29;19934;-82
2023/05/31 11:19:58;;;;;;;;;;;;;;;9.80;88.93;98921.81;4897847;29;19931;-83
2023/05/31 11:22:29;;;;;;;;;;;;;;;10.49;86.03;98924.38;4899837;29;19954;-82
2023/05/31 11:24:58;;;;;;;;;;;;;;;11.17;84.95;98919.69;4905203;29;19973;-83
2023/05/31 11:27:34;;;;;;;;;;;;;;;11.58;82.68;98915.59;4878925;29;19927;-83
2023/05/31 11:30:03;;;;;;;;;;;;;;;10.98;78.71;98916.44;4903638;29;20283;-83
2023/05/31 11:32:33;;;;;;;;;;;;;;;10.65;79.59;98928.94;4908382;29;19927;-81
2023/05/31 11:35:04;;;;;;;;;;;;;;;10.86;79.79;98924.66;4916348;29;19958;-80
2023/05/31 11:37:51;;;;;;;;;;;;;;;11.22;78.55;98928.66;4909990;29;19977;-82
2023/05/31 11:40:18;;;;;;;;;;;;;;;11.22;77.18;98933.25;4906765;29;20326;-82
2023/05/31 11:45:35;;;;;;;;;;;;;;;10.94;74.41;98929.66;4909450;29;20291;-81
2023/05/31 11:48:05;;;;;;;;;;;;;;;10.97;74.74;98923.75;4909505;29;19934;-82
2023/05/31 11:50:32;;;;;;;;;;;;;;;10.89;74.96;98926.88;4899272;29;20394;-81
2023/05/31 11:53:03;;;;;;;;;;;;;;;10.73;74.99;98925.00;4895549;29;19927;-82
2023/05/31 11:55:35;;;;;;;;;;;;;;;10.52;75.17;98924.69;4896495;29;19927;-82
2023/05/31 11:58:24;;;;;;;;;;;;;;;10.58;76.45;98930.97;4904896;29;19927;-82
2023/05/31 12:00:51;;;;;;;;;;;;;;;10.67;76.55;98936.78;4880329;29;20026;-82
2023/05/31 12:03:37;;;;;;;;;;;;;;;10.51;74.54;98930.34;4910444;29;19927;-82
2023/05/31 12:06:05;;;;;;;;;;;;;;;10.28;74.20;98924.06;4910988;29;19927;-83
2023/05/31 12:08:32;;;;;;;;;;;;;;;10.03;73.20;98935.19;4895364;29;19927;-82
2023/05/31 12:11:03;;;;;;;;;;;;;;;9.96;73.14;98937.22;4896793;29;19977;-83
2023/05/31 12:13:48;;;;;;;;;;;;;;;9.97;74.03;98945.03;4906556;29;19927;-84
2023/05/31 12:16:15;;;;;;;;;;;;;;;10.12;74.48;98943.69;4902962;29;19927;-82
2023/05/31 12:18:42;;;;;;;;;;;;;;;10.19;74.06;98933.56;4902599;29;19928;-80
2023/05/31 12:21:11;;;;;;;;;;;;;;;10.14;73.22;98933.47;4904050;29;19927;-82
2023/05/31 12:26:43;;;;;;;;;;;;;;;9.95;72.05;98933.69;4916936;29;20029;-82
2023/05/31 12:29:13;;;;;;;;;;;;;;;9.95;71.50;98935.56;4909531;29;19931;-84
2023/05/31 12:31:41;;;;;;;;;;;;;;;10.09;71.11;98933.38;4913024;29;19951;-86
2023/05/31 12:37:00;;;;;;;;;;;;;;;11.07;69.77;98925.78;4917173;29;19974;-86
2023/05/31 12:39:47;;;;;;;;;;;;;;;11.46;67.88;98920.31;4909343;29;19934;-83
2023/05/31 12:42:33;;;;;;;;;;;;;;;11.57;65.64;98913.13;4904490;29;19927;-82
2023/05/31 12:45:05;;;;;;;;;;;;;;;10.92;65.65;98922.84;4894974;29;20034;-82
2023/05/31 12:50:46;;;;;;;;;;;;;;;10.43;67.89;98928.84;4905857;29;19927;-82
2023/05/31 12:53:31;;;;;;;;;;;;;;;10.47;67.38;98921.91;4899733;29;19934;-82
2023/05/31 12:55:59;;;;;;;;;;;;;;;10.54;66.61;98921.75;4894797;29;20003;-81
2023/05/31 12:58:28;;;;;;;;;;;;;;;10.54;65.46;98921.75;4903659;29;20398;-81
2023/05/31 13:00:55;;;;;;;;;;;;;;;10.53;65.64;98914.72;4907251;29;20453;-84
2023/05/31 13:03:22;;;;;;;;;;;;;;;10.48;65.06;98920.88;4905022;29;19927;-82
2023/05/31 13:05:52;;;;;;;;;;;;;;;10.41;65.40;98929.13;4913172;29;20468;-83
2023/05/31 13:08:38;;;;;;;;;;;;;;;10.31;64.67;98928.94;4913274;29;20041;-82
2023/05/31 13:11:25;;;;;;;;;;;;;;;10.20;65.58;98932.50;4912803;29;19931;-80
2023/05/31 13:13:52;;;;;;;;;;;;;;;10.02;65.54;98930.03;4895447;29;20116;-81
2023/05/31 13:16:19;;;;;;;;;;;;;;;10.02;66.44;98930.03;4878881;29;19927;-79
2023/05/31 13:18:46;;;;;;;;;;;;;;;10.05;67.17;98934.91;4895475;29;19994;-80
2023/05/31 13:21:13;;;;;;;;;;;;;;;10.01;67.16;98936.50;4907012;29;19927;-79
2023/05/31 13:23:40;;;;;;;;;;;;;;;9.95;68.28;98932.84;4912208;29;20521;-80
2023/05/31 13:26:10;;;;;;;;;;;;;;;9.92;68.98;98931.47;4901385;29;19927;-80
2023/05/31 13:28:40;;;;;;;;;;;;;;;9.87;69.60;98942.16;4904774;29;20299;-80
2023/05/31 13:31:08;;;;;;;;;;;;;;;9.86;69.89;98937.84;4905626;29;20401;-80
2023/05/31 13:33:35;;;;;;;;;;;;;;;9.93;70.31;98933.13;4905534;29;19927;-78
2023/05/31 13:36:02;;;;;;;;;;;;;;;9.98;70.42;98937.78;4911652;29;19927;-79
2023/05/31 13:38:30;;;;;;;;;;;;;;;10.01;70.37;98931.91;4905637;29;19939;-81
2023/05/31 13:40:58;;;;;;;;;;;;;;;9.98;70.08;98929.69;4570687;29;10000392;-81
2023/05/31 13:43:29;;;;;;;;;;;;;;;9.87;70.57;98928.69;4905601;29;19933;-80
2023/05/31 13:45:57;;;;;;;;;;;;;;;9.79;70.86;98929.06;4897447;29;19933;-79
2023/05/31 13:48:24;;;;;;;;;;;;;;;9.73;71.60;98922.78;4905773;29;20002;-79
2023/05/31 13:50:51;;;;;;;;;;;;;;;9.68;71.77;98924.56;4897692;29;20306;-80
2023/05/31 13:53:18;;;;;;;;;;;;;;;9.64;71.97;98924.22;4904202;29;20507;-79
2023/05/31 13:55:48;;;;;;;;;;;;;;;9.68;71.69;98916.47;4897684;29;19926;-80
2023/05/31 13:58:28;;;;;;;;;;;;;;;9.74;71.65;98913.63;4904110;29;19927;-80
2023/05/31 14:00:55;;;;;;;;;;;;;;;9.81;71.62;98918.88;4901281;29;19928;-80
2023/05/31 14:03:25;;;;;;;;;;;;;;;9.82;71.85;98908.91;4905557;29;20378;-79
2023/05/31 14:05:52;;;;;;;;;;;;;;;9.83;72.22;98908.69;4909986;29;20421;-79
2023/05/31 14:08:19;;;;;;;;;;;;;;;9.86;72.46;98920.84;4903240;29;20378;-80
2023/05/31 14:10:46;;;;;;;;;;;;;;;9.85;73.10;98914.66;4903453;29;19981;-79
2023/05/31 14:13:13;;;;;;;;;;;;;;;9.85;74.00;98908.41;4908361;29;19930;-78
2023/05/31 14:15:42;;;;;;;;;;;;;;;9.86;74.68;98910.06;4898101;29;19960;-80
2023/05/31 14:18:09;;;;;;;;;;;;;;;9.90;74.77;98903.97;4889487;29;20013;-80